Time;durP1;ratioP1;P1;durP2;ratioP2;P2;SDS_P1;SDS_P2;PMS_P1;PMS_P2;Temp;Humidity;BMP_temperature;BMP_pressure;BME280_temperature;BME280_humidity;BME280_pressure;Samples;Min_cycle;Max_cycle;Signal;HPM_P1;HPM_P2
2021/06/19 00:01:34;;;;;;;;;;;21.90;72.90;;;;;;5054736;28;20429;-87
2021/06/19 00:04:00;;;;;;;;;;;21.90;73.00;;;;;;5055244;28;19915;-88
2021/06/19 00:06:25;;;;;;;;;;;21.80;73.00;;;;;;5053739;28;19908;-88
2021/06/19 00:08:51;;;;;;;;;;;21.90;73.30;;;;;;5053726;28;19908;-88
2021/06/19 00:11:17;;;;;;;;;;;21.80;72.90;;;;;;5053749;28;19995;-88
2021/06/19 00:13:42;;;;;;;;;;;21.80;73.00;;;;;;5052687;28;19913;-88
2021/06/19 00:16:08;;;;;;;;;;;21.70;73.20;;;;;;5052238;28;20011;-87
2021/06/19 00:18:33;;;;;;;;;;;21.70;73.40;;;;;;5054943;28;20000;-92
2021/06/19 00:20:59;;;;;;;;;;;21.70;73.10;;;;;;5056601;28;20126;-92
2021/06/19 00:23:25;;;;;;;;;;;21.60;73.20;;;;;;5056319;28;19916;-91
2021/06/19 00:25:50;;;;;;;;;;;21.60;73.60;;;;;;5056684;28;19909;-92
2021/06/19 00:28:16;;;;;;;;;;;21.50;73.70;;;;;;5056850;28;19909;-92
2021/06/19 00:30:42;;;;;;;;;;;21.50;73.70;;;;;;5056348;28;20290;-88
2021/06/19 00:33:07;;;;;;;;;;;21.50;74.20;;;;;;5057148;28;19916;-88
2021/06/19 00:35:33;;;;;;;;;;;21.40;73.80;;;;;;5057039;28;20410;-88
2021/06/19 00:37:59;;;;;;;;;;;21.40;73.90;;;;;;5055685;28;20251;-89
2021/06/19 00:40:24;;;;;;;;;;;21.30;74.70;;;;;;5057265;28;19932;-89
2021/06/19 00:42:56;;;;;;;;;;;21.30;73.60;;;;;;5057251;28;19955;-89
2021/06/19 00:45:22;;;;;;;;;;;21.30;74.50;;;;;;5055990;28;19909;-89
2021/06/19 00:47:48;;;;;;;;;;;21.20;74.40;;;;;;5057558;28;19909;-90
2021/06/19 00:50:13;;;;;;;;;;;21.20;74.70;;;;;;5055835;28;19916;-91
2021/06/19 00:52:39;;;;;;;;;;;21.20;74.50;;;;;;5056935;28;19916;-90
2021/06/19 00:55:05;;;;;;;;;;;21.20;74.60;;;;;;5057356;28;19920;-90
2021/06/19 00:57:31;;;;;;;;;;;21.10;74.80;;;;;;5055835;28;20274;-89
2021/06/19 00:59:58;;;;;;;;;;;21.10;74.40;;;;;;5056987;28;19908;-90
2021/06/19 01:02:24;;;;;;;;;;;21.10;75.10;;;;;;5057125;28;19996;-90
2021/06/19 01:04:50;;;;;;;;;;;21.10;74.60;;;;;;5055386;28;20004;-90
2021/06/19 01:07:16;;;;;;;;;;;21.10;74.50;;;;;;5056177;28;19959;-89
2021/06/19 01:09:41;;;;;;;;;;;21.00;74.70;;;;;;5055730;28;20367;-90
2021/06/19 01:12:07;;;;;;;;;;;21.00;75.10;;;;;;5056847;28;19978;-90
2021/06/19 01:14:32;;;;;;;;;;;21.00;74.40;;;;;;5055688;28;19913;-91
2021/06/19 01:16:58;;;;;;;;;;;21.00;74.90;;;;;;5055448;28;19917;-90
2021/06/19 01:19:24;;;;;;;;;;;21.00;74.90;;;;;;5056776;28;19909;-89
2021/06/19 01:21:53;;;;;;;;;;;20.90;75.20;;;;;;5056881;28;19921;-90
2021/06/19 01:24:21;;;;;;;;;;;20.90;74.80;;;;;;5056642;28;19909;-89
2021/06/19 01:26:47;;;;;;;;;;;20.90;75.40;;;;;;5055679;28;19908;-89
2021/06/19 01:29:13;;;;;;;;;;;20.80;76.00;;;;;;5057854;28;19909;-91
2021/06/19 01:31:38;;;;;;;;;;;20.80;75.70;;;;;;5058792;28;20003;-90
2021/06/19 01:34:04;;;;;;;;;;;20.80;76.40;;;;;;5061030;28;20355;-89
2021/06/19 01:36:30;;;;;;;;;;;20.80;76.20;;;;;;5066806;28;19916;-89
2021/06/19 01:38:55;;;;;;;;;;;20.80;76.00;;;;;;5068463;28;19908;-88
2021/06/19 01:41:26;;;;;;;;;;;20.80;75.90;;;;;;5067489;28;19916;-88
2021/06/19 01:44:09;;;;;;;;;;;20.80;76.70;;;;;;5067125;28;19913;-89
2021/06/19 01:46:36;;;;;;;;;;;20.80;76.60;;;;;;5065305;28;19935;-88
2021/06/19 01:49:02;;;;;;;;;;;20.80;76.80;;;;;;5055017;28;19916;-89
2021/06/19 01:51:28;;;;;;;;;;;20.80;75.80;;;;;;5054968;28;19909;-90
2021/06/19 01:53:54;;;;;;;;;;;20.80;76.60;;;;;;5055730;28;19928;-90
2021/06/19 01:56:20;;;;;;;;;;;20.70;76.60;;;;;;5055873;28;19909;-89
2021/06/19 01:58:46;;;;;;;;;;;20.70;76.50;;;;;;5054523;28;19916;-90
2021/06/19 02:01:14;;;;;;;;;;;20.70;77.00;;;;;;5054404;28;19908;-90
2021/06/19 02:03:40;;;;;;;;;;;20.80;76.80;;;;;;5055944;28;20289;-90
2021/06/19 02:06:06;;;;;;;;;;;20.70;76.40;;;;;;5054421;28;19916;-91
2021/06/19 02:08:31;;;;;;;;;;;20.80;76.30;;;;;;5054650;28;19909;-89
2021/06/19 02:10:58;;;;;;;;;;;20.80;76.50;;;;;;5055901;28;19909;-89
2021/06/19 02:13:24;;;;;;;;;;;20.80;76.50;;;;;;5054070;28;19909;-90
2021/06/19 02:15:49;;;;;;;;;;;20.80;76.40;;;;;;5054086;28;19919;-89
2021/06/19 02:18:15;;;;;;;;;;;20.80;77.00;;;;;;5055121;28;20329;-90
2021/06/19 02:20:42;;;;;;;;;;;20.80;76.70;;;;;;5054042;28;19916;-90
2021/06/19 02:23:07;;;;;;;;;;;20.80;76.70;;;;;;5055129;28;20270;-89
2021/06/19 02:25:33;;;;;;;;;;;20.80;76.10;;;;;;5054071;28;19909;-91
2021/06/19 02:28:00;;;;;;;;;;;20.80;76.30;;;;;;5053688;28;20013;-89
2021/06/19 02:30:27;;;;;;;;;;;20.80;75.90;;;;;;5055216;28;19962;-89
2021/06/19 02:32:53;;;;;;;;;;;20.80;76.30;;;;;;5053736;28;19913;-88
2021/06/19 02:35:19;;;;;;;;;;;20.80;76.80;;;;;;5055067;28;19916;-88
2021/06/19 02:37:45;;;;;;;;;;;20.90;76.90;;;;;;5055825;28;19923;-88
2021/06/19 02:40:11;;;;;;;;;;;20.90;76.70;;;;;;5054616;28;19909;-88
2021/06/19 02:42:37;;;;;;;;;;;20.90;76.60;;;;;;5054834;28;19909;-89
2021/06/19 02:45:10;;;;;;;;;;;20.90;76.70;;;;;;5054563;28;19944;-88
2021/06/19 02:47:36;;;;;;;;;;;20.90;77.00;;;;;;5054950;28;19912;-89
2021/06/19 02:50:01;;;;;;;;;;;20.90;77.30;;;;;;5054907;28;19948;-90
2021/06/19 02:52:27;;;;;;;;;;;20.90;77.00;;;;;;5054012;28;19908;-92
2021/06/19 02:54:52;;;;;;;;;;;20.90;76.70;;;;;;5053738;28;19960;-91
2021/06/19 02:57:18;;;;;;;;;;;21.00;76.60;;;;;;5053511;28;19917;-90
2021/06/19 02:59:44;;;;;;;;;;;21.00;76.90;;;;;;5053869;28;19909;-94
2021/06/19 03:02:09;;;;;;;;;;;21.00;76.70;;;;;;5054347;28;19909;-92
2021/06/19 03:04:35;;;;;;;;;;;21.00;76.50;;;;;;5053710;28;19917;-91
2021/06/19 03:07:00;;;;;;;;;;;21.00;76.60;;;;;;5053519;28;20051;-88
2021/06/19 03:09:26;;;;;;;;;;;21.10;76.50;;;;;;5054534;28;20377;-88
2021/06/19 03:11:51;;;;;;;;;;;21.10;77.10;;;;;;5054345;28;20291;-88
2021/06/19 03:14:17;;;;;;;;;;;21.10;76.70;;;;;;5052755;28;20354;-88
2021/06/19 03:16:42;;;;;;;;;;;21.10;77.10;;;;;;5054358;28;20011;-88
2021/06/19 03:19:11;;;;;;;;;;;21.10;77.30;;;;;;5053001;28;19908;-89
2021/06/19 03:21:36;;;;;;;;;;;21.10;76.90;;;;;;5053128;28;20007;-89
2021/06/19 03:24:03;;;;;;;;;;;21.10;76.30;;;;;;5054464;28;19959;-89
2021/06/19 03:26:28;;;;;;;;;;;21.20;76.40;;;;;;5053160;28;19916;-90
2021/06/19 03:28:54;;;;;;;;;;;21.20;76.70;;;;;;5054855;28;19909;-89
2021/06/19 03:31:19;;;;;;;;;;;21.30;75.90;;;;;;5057239;28;19954;-89
2021/06/19 03:33:45;;;;;;;;;;;21.40;76.40;;;;;;5054748;28;19908;-88
2021/06/19 03:36:10;;;;;;;;;;;21.50;76.10;;;;;;5052834;28;20312;-87
2021/06/19 03:38:36;;;;;;;;;;;21.50;75.80;;;;;;5052779;28;19916;-89
2021/06/19 03:41:02;;;;;;;;;;;21.60;75.60;;;;;;5052823;28;19956;-88
2021/06/19 03:43:27;;;;;;;;;;;21.70;75.20;;;;;;5052752;28;19908;-88
2021/06/19 03:45:53;;;;;;;;;;;21.70;75.00;;;;;;5053911;28;19963;-89
2021/06/19 03:48:18;;;;;;;;;;;21.80;74.70;;;;;;5053904;28;19962;-88
2021/06/19 03:50:44;;;;;;;;;;;21.90;74.50;;;;;;5053869;28;19915;-89
2021/06/19 03:53:09;;;;;;;;;;;22.00;74.40;;;;;;5054699;28;19955;-89
2021/06/19 03:55:35;;;;;;;;;;;22.00;74.50;;;;;;5058037;28;20318;-89
2021/06/19 03:58:00;;;;;;;;;;;22.10;74.30;;;;;;5057166;28;19917;-89
2021/06/19 04:00:27;;;;;;;;;;;22.20;74.10;;;;;;5059312;28;19916;-90
2021/06/19 04:02:53;;;;;;;;;;;22.20;74.10;;;;;;5057661;28;20272;-89
2021/06/19 04:05:19;;;;;;;;;;;22.30;74.00;;;;;;5058027;28;19916;-89
2021/06/19 04:07:44;;;;;;;;;;;22.30;73.80;;;;;;5057997;28;19939;-89
2021/06/19 04:10:11;;;;;;;;;;;22.40;73.60;;;;;;5059083;28;19916;-89
2021/06/19 04:12:36;;;;;;;;;;;22.50;73.70;;;;;;5057490;28;20266;-89
2021/06/19 04:15:03;;;;;;;;;;;22.50;73.40;;;;;;5057053;28;19917;-90
2021/06/19 04:17:30;;;;;;;;;;;22.60;73.80;;;;;;5056443;28;19924;-90
2021/06/19 04:19:55;;;;;;;;;;;22.60;73.10;;;;;;5056660;28;19909;-90
2021/06/19 04:22:21;;;;;;;;;;;22.60;73.10;;;;;;5056398;28;19912;-89
2021/06/19 04:24:46;;;;;;;;;;;22.60;73.10;;;;;;5057882;28;19913;-89
2021/06/19 04:27:16;;;;;;;;;;;22.60;73.00;;;;;;5057848;28;19909;-89
2021/06/19 04:29:42;;;;;;;;;;;22.70;73.20;;;;;;5056257;28;19909;-90
2021/06/19 04:32:09;;;;;;;;;;;22.70;73.40;;;;;;5058509;28;19963;-91
2021/06/19 04:34:34;;;;;;;;;;;22.80;73.10;;;;;;5057984;28;19913;-92
2021/06/19 04:37:00;;;;;;;;;;;22.80;73.30;;;;;;5064505;28;20418;-92
2021/06/19 04:39:26;;;;;;;;;;;22.80;73.00;;;;;;5064647;28;19909;-94
2021/06/19 04:46:46;;;;;;;;;;;22.80;73.40;;;;;;5071578;28;19908;-91
2021/06/19 04:49:12;;;;;;;;;;;22.80;73.00;;;;;;5070233;28;20375;-89
2021/06/19 04:51:38;;;;;;;;;;;22.80;72.70;;;;;;5069278;28;19916;-91
2021/06/19 04:54:04;;;;;;;;;;;22.70;73.20;;;;;;5065523;28;19984;-94
2021/06/19 04:56:29;;;;;;;;;;;22.70;73.80;;;;;;5058635;28;20244;-93
2021/06/19 04:58:55;;;;;;;;;;;22.70;73.70;;;;;;5057814;28;20285;-92
2021/06/19 05:01:20;;;;;;;;;;;22.60;73.90;;;;;;5057195;28;19963;-92
2021/06/19 05:03:46;;;;;;;;;;;22.60;73.70;;;;;;5058908;28;19996;-92
2021/06/19 05:06:11;;;;;;;;;;;22.60;73.90;;;;;;5057781;28;20302;-92
2021/06/19 05:08:39;;;;;;;;;;;22.60;73.80;;;;;;5059894;28;20244;-90
2021/06/19 05:11:04;;;;;;;;;;;22.70;74.10;;;;;;5073047;28;19909;-91
2021/06/19 05:13:30;;;;;;;;;;;22.70;74.20;;;;;;5075723;28;20277;-90
2021/06/19 05:15:56;;;;;;;;;;;22.70;73.60;;;;;;5075061;28;19917;-92
2021/06/19 05:18:21;;;;;;;;;;;22.70;73.60;;;;;;5079468;28;19909;-91
2021/06/19 05:20:47;;;;;;;;;;;22.70;73.50;;;;;;5079739;28;19917;-91
2021/06/19 05:23:12;;;;;;;;;;;22.70;73.60;;;;;;5077222;28;19923;-91
2021/06/19 05:25:38;;;;;;;;;;;22.80;73.60;;;;;;5058680;28;19955;-92
2021/06/19 05:28:04;;;;;;;;;;;22.80;73.90;;;;;;5057347;28;19962;-93
2021/06/19 05:30:30;;;;;;;;;;;22.80;73.90;;;;;;5057053;28;20382;-92
2021/06/19 05:32:56;;;;;;;;;;;22.90;73.90;;;;;;5055436;28;20355;-92
2021/06/19 05:35:21;;;;;;;;;;;22.90;73.90;;;;;;5056846;28;19909;-92
2021/06/19 05:37:47;;;;;;;;;;;22.90;73.40;;;;;;5056110;28;19921;-91
2021/06/19 05:40:13;;;;;;;;;;;23.00;73.90;;;;;;5055527;28;19932;-90
2021/06/19 05:42:41;;;;;;;;;;;23.00;73.20;;;;;;5055999;28;20074;-90
2021/06/19 05:45:07;;;;;;;;;;;23.10;73.20;;;;;;5056164;28;20244;-93
2021/06/19 05:47:32;;;;;;;;;;;23.20;72.90;;;;;;5055311;28;19913;-92
2021/06/19 05:49:58;;;;;;;;;;;23.30;73.00;;;;;;5056275;28;20383;-91
2021/06/19 05:52:25;;;;;;;;;;;23.30;72.90;;;;;;5056088;28;19955;-91
2021/06/19 05:54:54;;;;;;;;;;;23.30;72.80;;;;;;5056460;28;20012;-91
2021/06/19 05:57:19;;;;;;;;;;;23.30;72.60;;;;;;5055038;28;19924;-91
2021/06/19 05:59:45;;;;;;;;;;;23.40;72.70;;;;;;5056211;28;19913;-91
2021/06/19 06:02:11;;;;;;;;;;;23.50;72.60;;;;;;5056683;28;19909;-90
2021/06/19 06:04:37;;;;;;;;;;;23.50;72.40;;;;;;5055317;28;19920;-91
2021/06/19 06:07:02;;;;;;;;;;;23.60;71.90;;;;;;5055133;28;19920;-91
2021/06/19 06:09:28;;;;;;;;;;;23.60;72.20;;;;;;5056640;28;19909;-94
2021/06/19 06:11:54;;;;;;;;;;;23.70;72.00;;;;;;5056922;28;19912;-91
2021/06/19 06:14:20;;;;;;;;;;;23.70;71.50;;;;;;5055280;28;19909;-92
2021/06/19 06:16:45;;;;;;;;;;;23.80;71.60;;;;;;5056614;28;19999;-92
2021/06/19 06:19:11;;;;;;;;;;;23.80;71.50;;;;;;5058676;28;20287;-90
2021/06/19 06:21:37;;;;;;;;;;;23.90;71.40;;;;;;5060651;28;20011;-93
2021/06/19 06:24:03;;;;;;;;;;;23.90;71.60;;;;;;5063936;28;19924;-91
2021/06/19 06:26:28;;;;;;;;;;;23.90;71.30;;;;;;5065332;28;19912;-89
2021/06/19 06:28:54;;;;;;;;;;;24.00;71.00;;;;;;5065354;28;19996;-91
2021/06/19 06:31:20;;;;;;;;;;;24.00;71.00;;;;;;5060976;28;19909;-89
2021/06/19 06:33:45;;;;;;;;;;;24.10;70.90;;;;;;5063797;28;19932;-91
2021/06/19 06:36:11;;;;;;;;;;;24.10;70.90;;;;;;5054984;28;19916;-91
2021/06/19 06:38:36;;;;;;;;;;;24.10;69.80;;;;;;5055435;28;19939;-90
2021/06/19 06:41:02;;;;;;;;;;;24.20;70.10;;;;;;5055517;28;20031;-91
2021/06/19 06:43:28;;;;;;;;;;;24.30;70.00;;;;;;5054760;28;19915;-92
2021/06/19 06:45:53;;;;;;;;;;;24.40;69.80;;;;;;5054163;28;20306;-93
2021/06/19 06:48:19;;;;;;;;;;;24.40;69.70;;;;;;5055303;28;19915;-91
2021/06/19 06:50:44;;;;;;;;;;;24.50;69.50;;;;;;5055592;28;20011;-93
2021/06/19 06:53:10;;;;;;;;;;;24.60;69.50;;;;;;5054745;28;19908;-90
2021/06/19 06:55:36;;;;;;;;;;;24.70;69.40;;;;;;5057069;28;19913;-92
2021/06/19 06:58:01;;;;;;;;;;;24.80;69.00;;;;;;5062257;28;20286;-93
2021/06/19 07:00:27;;;;;;;;;;;24.90;68.70;;;;;;5069638;28;19967;-92
2021/06/19 07:02:53;;;;;;;;;;;25.10;67.60;;;;;;5060514;28;19920;-94
2021/06/19 07:05:25;;;;;;;;;;;25.20;67.50;;;;;;5054536;28;19915;-93
2021/06/19 07:07:50;;;;;;;;;;;25.20;67.70;;;;;;5055047;28;19916;-94
2021/06/19 07:10:16;;;;;;;;;;;25.40;67.70;;;;;;5053583;28;19913;-92
2021/06/19 07:12:45;;;;;;;;;;;25.50;67.30;;;;;;5055496;28;19947;-93
2021/06/19 07:15:12;;;;;;;;;;;25.60;66.00;;;;;;5055251;28;19908;-91
2021/06/19 07:17:37;;;;;;;;;;;25.70;66.60;;;;;;5054165;28;20015;-91
2021/06/19 07:20:04;;;;;;;;;;;25.70;66.30;;;;;;5055227;28;20338;-93
2021/06/19 07:22:30;;;;;;;;;;;25.80;66.40;;;;;;5055515;28;19920;-92
2021/06/19 07:24:56;;;;;;;;;;;25.80;66.70;;;;;;5057265;28;19913;-93
2021/06/19 07:27:21;;;;;;;;;;;25.80;66.10;;;;;;5055945;28;19999;-93
2021/06/19 07:29:47;;;;;;;;;;;25.80;65.20;;;;;;5057199;28;19939;-93
2021/06/19 07:32:15;;;;;;;;;;;25.90;65.30;;;;;;5055234;28;19919;-95
2021/06/19 07:34:41;;;;;;;;;;;25.90;65.40;;;;;;5059255;28;19955;-92
2021/06/19 07:37:07;;;;;;;;;;;25.90;65.40;;;;;;5053771;28;19917;-91
2021/06/19 07:39:32;;;;;;;;;;;25.90;65.10;;;;;;5055852;28;20274;-92
2021/06/19 07:42:01;;;;;;;;;;;26.00;64.80;;;;;;5053401;28;19915;-93
2021/06/19 07:44:26;;;;;;;;;;;26.10;65.30;;;;;;5053059;28;19912;-91
2021/06/19 07:46:52;;;;;;;;;;;26.20;64.40;;;;;;5053144;28;19954;-91
2021/06/19 07:49:19;;;;;;;;;;;26.30;65.00;;;;;;5053772;28;19908;-91
2021/06/19 07:51:47;;;;;;;;;;;26.50;64.60;;;;;;5053452;28;19908;-92
2021/06/19 07:54:13;;;;;;;;;;;26.60;64.30;;;;;;5053675;28;19924;-92
2021/06/19 07:56:38;;;;;;;;;;;26.60;63.50;;;;;;5053315;28;20414;-93
2021/06/19 07:59:07;;;;;;;;;;;26.70;63.80;;;;;;5053236;28;19926;-93
2021/06/19 08:01:32;;;;;;;;;;;26.90;63.60;;;;;;5054686;28;19920;-92
2021/06/19 08:03:58;;;;;;;;;;;27.10;63.80;;;;;;5053677;28;19909;-92
2021/06/19 08:06:24;;;;;;;;;;;27.40;63.30;;;;;;5053424;28;20347;-92
2021/06/19 08:08:49;;;;;;;;;;;27.50;62.30;;;;;;5053735;28;19991;-91
2021/06/19 08:11:15;;;;;;;;;;;27.60;62.60;;;;;;5053417;28;19909;-91
2021/06/19 08:13:40;;;;;;;;;;;27.60;60.60;;;;;;5053256;28;20000;-93
2021/06/19 08:16:06;;;;;;;;;;;27.70;61.80;;;;;;5052930;28;19916;-92
2021/06/19 08:18:32;;;;;;;;;;;27.70;62.00;;;;;;5052881;28;20271;-93
2021/06/19 08:20:58;;;;;;;;;;;27.80;62.40;;;;;;5052965;28;19913;-93
2021/06/19 08:23:24;;;;;;;;;;;28.00;61.70;;;;;;5054827;28;19909;-93
2021/06/19 08:25:49;;;;;;;;;;;28.20;62.10;;;;;;5054284;28;20378;-92
2021/06/19 08:28:15;;;;;;;;;;;28.40;61.90;;;;;;5052421;28;19915;-93
2021/06/19 08:30:41;;;;;;;;;;;28.50;58.70;;;;;;5054267;28;19909;-93
2021/06/19 08:33:06;;;;;;;;;;;28.50;58.60;;;;;;5053347;28;19909;-93
2021/06/19 08:35:32;;;;;;;;;;;28.50;59.70;;;;;;5054476;28;19909;-93
2021/06/19 08:37:58;;;;;;;;;;;28.60;59.80;;;;;;5052883;28;19917;-93
2021/06/19 08:40:23;;;;;;;;;;;28.60;58.80;;;;;;5056833;28;19908;-92
2021/06/19 08:42:49;;;;;;;;;;;28.70;59.30;;;;;;5058321;28;19912;-91
2021/06/19 08:45:14;;;;;;;;;;;28.80;61.30;;;;;;5056583;28;19951;-93
2021/06/19 08:47:40;;;;;;;;;;;29.10;59.40;;;;;;5057257;28;20292;-94
2021/06/19 08:50:07;;;;;;;;;;;29.50;57.00;;;;;;5056606;28;19909;-94
2021/06/19 08:52:37;;;;;;;;;;;29.80;57.30;;;;;;5056567;28;20351;-92
2021/06/19 08:55:03;;;;;;;;;;;30.10;56.20;;;;;;5058112;28;20382;-93
2021/06/19 08:57:29;;;;;;;;;;;30.30;55.70;;;;;;5056878;28;20275;-93
2021/06/19 08:59:55;;;;;;;;;;;30.50;56.30;;;;;;5061386;28;19909;-93
2021/06/19 09:02:20;;;;;;;;;;;30.50;53.90;;;;;;5069122;28;19962;-92
2021/06/19 09:05:04;;;;;;;;;;;30.60;53.50;;;;;;5070178;28;19909;-94
2021/06/19 09:07:36;;;;;;;;;;;30.70;54.00;;;;;;5069526;28;19908;-92
2021/06/19 09:10:17;;;;;;;;;;;31.00;52.50;;;;;;5069604;28;19931;-94
2021/06/19 09:13:01;;;;;;;;;;;31.30;53.40;;;;;;5072459;28;19997;-90
2021/06/19 09:15:28;;;;;;;;;;;31.60;53.90;;;;;;5074801;28;20280;-89
2021/06/19 09:18:04;;;;;;;;;;;31.90;53.10;;;;;;5076932;28;19928;-89
2021/06/19 09:20:33;;;;;;;;;;;31.90;51.40;;;;;;5072526;28;19952;-93
2021/06/19 09:23:03;;;;;;;;;;;31.90;52.60;;;;;;5056703;28;20374;-93
2021/06/19 09:25:29;;;;;;;;;;;31.90;52.20;;;;;;5056551;28;19909;-91
2021/06/19 09:27:56;;;;;;;;;;;31.90;52.10;;;;;;5055403;28;19915;-94
2021/06/19 09:30:22;;;;;;;;;;;32.10;52.00;;;;;;5055935;28;19928;-93
2021/06/19 09:32:52;;;;;;;;;;;32.30;51.40;;;;;;5055441;28;20382;-94
2021/06/19 09:35:24;;;;;;;;;;;32.50;50.80;;;;;;5056381;28;19935;-93
2021/06/19 09:37:50;;;;;;;;;;;32.60;51.20;;;;;;5058062;28;20279;-93
2021/06/19 09:40:22;;;;;;;;;;;32.90;51.70;;;;;;5055194;28;20268;-93
2021/06/19 09:42:48;;;;;;;;;;;33.10;50.00;;;;;;5055567;28;20271;-93
2021/06/19 09:45:20;;;;;;;;;;;33.30;49.50;;;;;;5055080;28;20015;-93
2021/06/19 09:47:46;;;;;;;;;;;33.40;48.70;;;;;;5054919;28;20378;-93
2021/06/19 09:50:12;;;;;;;;;;;33.30;48.40;;;;;;5054084;28;19909;-93
2021/06/19 09:52:38;;;;;;;;;;;33.30;49.00;;;;;;5055103;28;19909;-94
2021/06/19 09:55:09;;;;;;;;;;;33.10;49.00;;;;;;5055143;28;19925;-92
2021/06/19 09:57:41;;;;;;;;;;;32.90;49.70;;;;;;5055292;28;20059;-93
2021/06/19 10:00:11;;;;;;;;;;;32.30;50.20;;;;;;5056085;28;20382;-93
2021/06/19 10:02:38;;;;;;;;;;;31.80;50.90;;;;;;5056401;28;19999;-92
2021/06/19 10:05:04;;;;;;;;;;;31.10;51.80;;;;;;5056474;28;19909;-92
2021/06/19 10:07:33;;;;;;;;;;;30.50;52.90;;;;;;5054653;28;19913;-92
2021/06/19 10:09:59;;;;;;;;;;;29.90;54.40;;;;;;5055634;28;20363;-93
2021/06/19 10:12:26;;;;;;;;;;;29.40;55.20;;;;;;5056164;28;19909;-93
2021/06/19 10:14:58;;;;;;;;;;;29.00;55.40;;;;;;5054964;28;19908;-92
2021/06/19 10:17:26;;;;;;;;;;;28.70;56.50;;;;;;5054837;28;19994;-93
2021/06/19 10:19:52;;;;;;;;;;;28.60;57.00;;;;;;5054462;28;19908;-92
2021/06/19 10:22:17;;;;;;;;;;;28.80;55.40;;;;;;5056020;28;19955;-92
2021/06/19 10:24:44;;;;;;;;;;;29.10;55.40;;;;;;5057393;28;19914;-92
2021/06/19 10:27:14;;;;;;;;;;;29.40;54.40;;;;;;5073244;28;19904;-92
2021/06/19 10:29:40;;;;;;;;;;;29.40;54.50;;;;;;5074356;28;19896;-92
2021/06/19 10:32:06;;;;;;;;;;;29.40;54.40;;;;;;5055833;28;20401;-92
2021/06/19 10:34:37;;;;;;;;;;;29.30;53.60;;;;;;5054996;28;20406;-93
2021/06/19 10:37:04;;;;;;;;;;;29.40;53.60;;;;;;5055769;28;19956;-93
2021/06/19 10:39:30;;;;;;;;;;;29.30;53.50;;;;;;5054613;28;19908;-93
2021/06/19 10:41:56;;;;;;;;;;;29.30;53.50;;;;;;5054282;28;19963;-93
2021/06/19 10:44:40;;;;;;;;;;;29.30;53.40;;;;;;5055376;28;19920;-92
2021/06/19 10:47:06;;;;;;;;;;;29.20;53.50;;;;;;5055165;28;19908;-92
2021/06/19 10:49:31;;;;;;;;;;;29.10;54.30;;;;;;5055269;28;20389;-92
2021/06/19 10:52:16;;;;;;;;;;;29.10;54.50;;;;;;5054322;28;20413;-92
2021/06/19 10:55:01;;;;;;;;;;;29.10;53.90;;;;;;5053648;28;20362;-92
2021/06/19 10:57:42;;;;;;;;;;;29.30;53.80;;;;;;5054888;28;19916;-92
2021/06/19 11:00:26;;;;;;;;;;;29.70;53.80;;;;;;5053787;28;19996;-90
2021/06/19 11:02:53;;;;;;;;;;;30.00;52.50;;;;;;5053288;28;19916;-91
2021/06/19 11:05:39;;;;;;;;;;;30.50;51.30;;;;;;5054912;28;20390;-92
2021/06/19 11:08:04;;;;;;;;;;;31.10;50.40;;;;;;5049617;28;19909;-92
2021/06/19 11:10:49;;;;;;;;;;;31.60;49.50;;;;;;5053715;28;19916;-91
2021/06/19 11:13:30;;;;;;;;;;;32.00;49.00;;;;;;5053327;28;19959;-91
2021/06/19 11:16:02;;;;;;;;;;;32.50;47.30;;;;;;5055239;28;19909;-94
2021/06/19 11:18:54;;;;;;;;;;;32.90;47.00;;;;;;5053719;28;19916;-94
2021/06/19 11:21:25;;;;;;;;;;;33.30;47.10;;;;;;5052568;28;19967;-91
2021/06/19 11:24:00;;;;;;;;;;;33.30;45.60;;;;;;5055068;28;19909;-93
2021/06/19 11:26:45;;;;;;;;;;;33.20;47.60;;;;;;5053495;28;19916;-93
2021/06/19 11:29:29;;;;;;;;;;;33.10;46.10;;;;;;5055640;28;19915;-93
2021/06/19 11:31:55;;;;;;;;;;;33.10;46.80;;;;;;5054938;28;19970;-92
2021/06/19 11:34:40;;;;;;;;;;;33.40;45.90;;;;;;5053373;28;20325;-93
2021/06/19 11:37:05;;;;;;;;;;;33.70;46.70;;;;;;5053119;28;19924;-94
2021/06/19 11:39:33;;;;;;;;;;;34.10;44.30;;;;;;5054553;28;19909;-91
2021/06/19 11:42:00;;;;;;;;;;;34.20;45.00;;;;;;5053313;28;19908;-92
2021/06/19 11:44:34;;;;;;;;;;;34.20;43.30;;;;;;5053351;28;19916;-91
2021/06/19 11:47:02;;;;;;;;;;;34.20;43.10;;;;;;5053439;28;19909;-92
2021/06/19 11:49:29;;;;;;;;;;;33.90;43.40;;;;;;5053666;28;19909;-92
2021/06/19 11:51:55;;;;;;;;;;;33.60;44.10;;;;;;5053764;28;19935;-90
2021/06/19 11:54:21;;;;;;;;;;;33.50;44.60;;;;;;5054058;28;20355;-92
2021/06/19 11:56:46;;;;;;;;;;;33.40;45.40;;;;;;5054268;28;19970;-92
2021/06/19 11:59:13;;;;;;;;;;;33.50;45.60;;;;;;5053979;28;20003;-92
2021/06/19 12:01:39;;;;;;;;;;;33.70;44.30;;;;;;5053017;28;19915;-92
2021/06/19 12:04:12;;;;;;;;;;;33.80;42.80;;;;;;5053129;28;19916;-91
2021/06/19 12:06:42;;;;;;;;;;;33.60;44.00;;;;;;5053011;28;20382;-91
2021/06/19 12:09:08;;;;;;;;;;;33.30;44.60;;;;;;5053603;28;19909;-91
2021/06/19 12:11:35;;;;;;;;;;;32.90;45.00;;;;;;5053821;28;19909;-91
2021/06/19 12:14:01;;;;;;;;;;;32.40;46.10;;;;;;5058526;28;19962;-92
2021/06/19 12:16:30;;;;;;;;;;;32.00;47.80;;;;;;5071146;28;19909;-92
2021/06/19 12:19:04;;;;;;;;;;;31.40;48.70;;;;;;5077985;28;19921;-91
2021/06/19 12:21:34;;;;;;;;;;;30.90;51.30;;;;;;5070187;28;20306;-92
2021/06/19 12:24:01;;;;;;;;;;;30.30;54.20;;;;;;5077462;28;19915;-90
2021/06/19 12:26:26;;;;;;;;;;;29.60;55.40;;;;;;5069641;28;20259;-93
2021/06/19 12:28:52;;;;;;;;;;;28.90;56.30;;;;;;5057798;28;19928;-92
2021/06/19 12:31:22;;;;;;;;;;;28.50;57.20;;;;;;5057002;28;19988;-94
2021/06/19 12:33:56;;;;;;;;;;;28.10;60.10;;;;;;5056519;28;19950;-92
2021/06/19 12:36:23;;;;;;;;;;;27.80;62.10;;;;;;5056835;28;19916;-92
2021/06/19 12:38:49;;;;;;;;;;;27.50;61.40;;;;;;5056667;28;19916;-92
2021/06/19 12:41:15;;;;;;;;;;;27.30;60.10;;;;;;5056534;28;19927;-92
2021/06/19 12:43:51;;;;;;;;;;;27.20;62.70;;;;;;5056880;28;19909;-94
2021/06/19 12:46:17;;;;;;;;;;;27.10;61.90;;;;;;5058272;28;19909;-92
2021/06/19 12:48:43;;;;;;;;;;;27.10;64.80;;;;;;5057874;28;19913;-92
2021/06/19 12:51:19;;;;;;;;;;;27.00;66.40;;;;;;5055946;28;19992;-92
2021/06/19 12:53:45;;;;;;;;;;;27.00;65.40;;;;;;5057428;28;19928;-91
2021/06/19 12:56:11;;;;;;;;;;;27.00;63.70;;;;;;5055937;28;19909;-90
2021/06/19 12:58:41;;;;;;;;;;;26.90;64.10;;;;;;5055959;28;19917;-90
2021/06/19 13:01:16;;;;;;;;;;;26.80;63.20;;;;;;5056785;28;20000;-92
2021/06/19 13:03:41;;;;;;;;;;;26.70;63.50;;;;;;5055814;28;19909;-92
2021/06/19 13:06:08;;;;;;;;;;;26.60;64.30;;;;;;5057222;28;19921;-93
2021/06/19 13:08:34;;;;;;;;;;;26.50;64.10;;;;;;5056326;28;19916;-92
2021/06/19 13:11:01;;;;;;;;;;;26.50;64.00;;;;;;5055477;28;20356;-92
2021/06/19 13:13:39;;;;;;;;;;;26.60;63.70;;;;;;5056290;28;19913;-92
2021/06/19 13:16:04;;;;;;;;;;;26.70;62.20;;;;;;5057013;28;19909;-93
2021/06/19 13:18:30;;;;;;;;;;;26.70;60.70;;;;;;5056935;28;19940;-93
2021/06/19 13:21:13;;;;;;;;;;;26.90;62.60;;;;;;5055483;28;20271;-93
2021/06/19 13:23:40;;;;;;;;;;;27.40;59.80;;;;;;5056583;28;20074;-93
2021/06/19 13:26:06;;;;;;;;;;;28.30;57.60;;;;;;5059867;28;20381;-94
2021/06/19 13:28:32;;;;;;;;;;;29.10;56.60;;;;;;5058327;28;19908;-94
2021/06/19 13:31:17;;;;;;;;;;;29.90;56.00;;;;;;5055985;28;19916;-92
2021/06/19 13:33:44;;;;;;;;;;;30.60;54.10;;;;;;5056191;28;20003;-92
2021/06/19 13:36:13;;;;;;;;;;;31.10;52.70;;;;;;5055526;28;19915;-95
2021/06/19 13:38:58;;;;;;;;;;;31.30;52.90;;;;;;5054927;28;19917;-92
2021/06/19 13:41:32;;;;;;;;;;;31.30;51.30;;;;;;5056303;28;19909;-93
2021/06/19 13:43:59;;;;;;;;;;;31.40;50.70;;;;;;5055090;28;19913;-91
2021/06/19 13:46:24;;;;;;;;;;;31.60;50.00;;;;;;5056485;28;19909;-91
2021/06/19 13:48:50;;;;;;;;;;;31.80;49.60;;;;;;5056477;28;19915;-93
2021/06/19 13:51:16;;;;;;;;;;;32.00;49.60;;;;;;5056189;28;20271;-92
2021/06/19 13:53:45;;;;;;;;;;;31.90;49.60;;;;;;5054661;28;19925;-93
2021/06/19 13:56:10;;;;;;;;;;;31.70;51.10;;;;;;5054861;28;19916;-93
2021/06/19 13:58:36;;;;;;;;;;;31.50;51.20;;;;;;5056019;28;20273;-93
2021/06/19 14:01:05;;;;;;;;;;;31.20;51.80;;;;;;5055260;28;19909;-93
2021/06/19 14:03:40;;;;;;;;;;;31.00;52.20;;;;;;5056316;28;19913;-92
2021/06/19 14:06:11;;;;;;;;;;;30.80;52.70;;;;;;5056056;28;19909;-93
2021/06/19 14:08:39;;;;;;;;;;;30.80;53.30;;;;;;5055689;28;19909;-93
2021/06/19 14:11:05;;;;;;;;;;;31.00;53.00;;;;;;5054705;28;19909;-92
2021/06/19 14:13:30;;;;;;;;;;;31.40;53.00;;;;;;5054832;28;19916;-93
2021/06/19 14:15:56;;;;;;;;;;;31.90;52.30;;;;;;5054858;28;19909;-92
2021/06/19 14:18:21;;;;;;;;;;;32.50;51.30;;;;;;5055838;28;19923;-91
2021/06/19 14:20:53;;;;;;;;;;;32.90;49.50;;;;;;5055453;28;19909;-93
2021/06/19 14:23:19;;;;;;;;;;;33.30;49.30;;;;;;5054353;28;20423;-91